createdAt,value
2019-04-23T00:02:23.286Z,6.67
2019-04-23T00:04:55.588Z,6.73
2019-04-23T00:07:44.438Z,6.90
2019-04-23T00:10:03.449Z,6.70
2019-04-23T00:12:45.264Z,7.60
2019-04-23T00:17:37.304Z,7.23
2019-04-23T00:20:09.586Z,6.77
2019-04-23T00:23:11.519Z,7.00
2019-04-23T00:28:28.292Z,7.17
2019-04-23T00:30:58.252Z,7.03
2019-04-23T00:35:55.155Z,7.33
2019-04-23T00:38:33.544Z,7.77
2019-04-23T00:40:59.612Z,8.00
2019-04-23T00:43:52.745Z,7.17
2019-04-23T00:46:02.390Z,7.67
2019-04-23T00:48:39.627Z,8.10
2019-04-23T00:50:58.593Z,7.60
2019-04-23T00:53:33.132Z,7.83
2019-04-23T00:56:26.702Z,7.43
2019-04-23T01:01:26.916Z,8.53
2019-04-23T01:03:42.217Z,7.90
2019-04-23T01:06:14.348Z,7.70
2019-04-23T01:08:44.202Z,8.00
2019-04-23T01:11:20.632Z,7.90
2019-04-23T01:16:19.562Z,8.53
2019-04-23T01:21:11.695Z,8.37
2019-04-23T01:24:13.972Z,8.47
2019-04-23T01:29:57.621Z,7.90
2019-04-23T01:32:25.602Z,8.70
2019-04-23T01:35:07.309Z,8.17
2019-04-23T01:37:30.320Z,8.60
2019-04-23T01:39:57.536Z,8.53
2019-04-23T01:42:35.964Z,8.37
2019-04-23T01:45:12.038Z,8.47
2019-04-23T01:47:33.600Z,8.17
2019-04-23T01:50:09.973Z,9.03
2019-04-23T01:52:41.744Z,8.43
2019-04-23T01:55:08.343Z,8.80
2019-04-23T01:57:42.292Z,8.43
2019-04-23T02:02:46.488Z,8.77
2019-04-23T02:05:17.732Z,8.10
2019-04-23T02:07:44.296Z,8.43
2019-04-23T02:10:20.625Z,9.10
2019-04-23T02:12:49.343Z,8.30
2019-04-23T02:15:17.024Z,9.10
2019-04-23T02:20:22.015Z,8.97
2019-04-23T02:23:24.672Z,9.73
2019-04-23T02:28:42.358Z,9.17
2019-04-23T02:31:18.547Z,9.50
2019-04-23T02:33:35.293Z,9.17
2019-04-23T02:36:07.861Z,9.10
2019-04-23T02:38:40.176Z,10.00
2019-04-23T02:43:22.145Z,9.40
2019-04-23T02:46:05.514Z,9.83
2019-04-23T02:51:04.460Z,9.93
2019-04-23T02:53:51.099Z,10.07
2019-04-23T02:56:15.150Z,10.23
2019-04-23T02:58:43.902Z,9.93
2019-04-23T03:01:22.344Z,11.17
2019-04-23T03:08:49.280Z,10.87
2019-04-23T03:14:03.588Z,10.40
2019-04-23T03:16:49.888Z,10.90
2019-04-23T03:22:15.238Z,11.97
2019-04-23T03:30:26.405Z,11.10
2019-04-23T03:35:34.454Z,11.40
2019-04-23T03:37:58.559Z,10.87
2019-04-23T03:40:18.790Z,11.33
2019-04-23T03:45:38.196Z,12.67
2019-04-23T03:50:35.355Z,11.53
2019-04-23T03:52:58.128Z,12.43
2019-04-23T03:58:07.656Z,13.17
2019-04-23T04:00:39.650Z,12.47
2019-04-23T04:03:27.480Z,11.83
2019-04-23T04:08:13.889Z,12.30
2019-04-23T04:13:17.932Z,12.50
2019-04-23T04:15:55.501Z,12.27
2019-04-23T04:18:32.975Z,12.33
2019-04-23T04:23:24.225Z,12.93
2019-04-23T04:30:49.171Z,13.70
2019-04-23T04:36:04.770Z,13.77
2019-04-23T04:46:12.425Z,12.90
2019-04-23T04:48:37.773Z,13.00
2019-04-23T04:51:08.003Z,13.27
2019-04-23T04:58:44.097Z,13.43
2019-04-23T05:06:21.270Z,13.37
2019-04-23T05:08:58.425Z,13.57
2019-04-23T05:13:44.543Z,13.73
2019-04-23T05:18:46.725Z,13.97
2019-04-23T05:21:40.944Z,13.90
2019-04-23T05:23:50.523Z,13.43
2019-04-23T05:29:01.760Z,14.67
2019-04-23T05:44:06.388Z,13.67
2019-04-23T05:49:02.737Z,14.23
2019-04-23T05:51:36.347Z,14.07
2019-04-23T05:53:59.744Z,14.33
2019-04-23T05:56:32.073Z,13.30
2019-04-23T05:59:06.258Z,13.90
2019-04-23T06:06:52.388Z,14.27
2019-04-23T06:09:14.183Z,14.73
2019-04-23T06:14:20.431Z,13.67
2019-04-23T06:17:03.779Z,14.50
2019-04-23T06:19:18.991Z,13.80
2019-04-23T06:22:23.476Z,14.00
2019-04-23T06:24:23.990Z,14.40
2019-04-23T06:29:25.482Z,14.37
2019-04-23T06:31:50.869Z,14.10
2019-04-23T06:34:21.720Z,14.70
2019-04-23T06:39:25.992Z,15.57
2019-04-23T06:41:54.760Z,15.03
2019-04-23T06:49:37.034Z,15.17
2019-04-23T06:52:11.367Z,15.50
2019-04-23T06:54:42.380Z,14.87
2019-04-23T06:57:14.864Z,15.00
2019-04-23T07:02:18.516Z,14.87
2019-04-23T07:04:43.589Z,16.30
2019-04-23T07:07:33.398Z,15.37
2019-04-23T07:09:35.456Z,15.70
2019-04-23T07:12:08.914Z,14.80
2019-04-23T07:14:51.790Z,15.27
2019-04-23T07:17:10.409Z,14.23
2019-04-23T07:19:42.369Z,14.60
2019-04-23T07:22:18.909Z,15.23
2019-04-23T07:24:51.132Z,14.07
2019-04-23T07:27:19.152Z,15.47
2019-04-23T07:32:16.793Z,15.20
2019-04-23T07:34:59.202Z,15.53
2019-04-23T07:37:24.094Z,15.00
2019-04-23T07:40:21.549Z,15.77
2019-04-23T07:42:39.097Z,16.13
2019-04-23T07:45:18.934Z,15.63
2019-04-23T07:48:11.957Z,15.90
2019-04-23T07:53:17.181Z,15.63
2019-04-23T07:59:14.222Z,15.70
2019-04-23T08:01:12.577Z,15.00
2019-04-23T08:03:24.259Z,15.80
2019-04-23T08:05:44.024Z,15.77
2019-04-23T08:08:20.652Z,15.03
2019-04-23T08:11:25.899Z,14.90
2019-04-23T08:13:42.276Z,14.90
2019-04-23T08:16:19.694Z,14.57
2019-04-23T08:18:44.775Z,13.80
2019-04-23T08:23:49.101Z,14.03
2019-04-23T08:26:50.809Z,14.13
2019-04-23T08:32:00.569Z,13.97
2019-04-23T08:34:30.257Z,13.60
2019-04-23T08:37:01.380Z,13.80
2019-04-23T08:39:26.872Z,13.60
2019-04-23T08:42:23.303Z,15.03
2019-04-23T08:45:15.390Z,14.77
2019-04-23T08:47:44.295Z,14.83
2019-04-23T08:50:23.326Z,13.97
2019-04-23T08:52:43.110Z,13.80
2019-04-23T08:55:14.882Z,14.03
2019-04-23T08:57:45.235Z,15.10
2019-04-23T09:00:17.709Z,15.00
2019-04-23T09:02:47.798Z,15.33
2019-04-23T09:05:28.620Z,15.73
2019-04-23T09:10:26.513Z,15.00
2019-04-23T09:13:00.730Z,15.57
2019-04-23T09:15:36.768Z,14.97
2019-04-23T09:17:56.326Z,15.73
2019-04-23T09:20:27.777Z,15.60
2019-04-23T09:22:53.082Z,14.93
2019-04-23T09:25:34.607Z,15.47
2019-04-23T09:28:01.867Z,14.83
2019-04-23T09:30:35.118Z,14.73
2019-04-23T09:33:31.253Z,15.10
2019-04-23T09:36:18.464Z,12.37
2019-04-23T09:39:08.392Z,14.80
2019-04-23T09:41:51.759Z,15.43
2019-04-23T09:47:14.299Z,15.10
2019-04-23T09:49:44.381Z,15.00
2019-04-23T09:52:14.676Z,14.60
2019-04-23T09:54:50.527Z,15.20
2019-04-23T09:57:12.465Z,15.03
2019-04-23T09:59:43.285Z,15.00
2019-04-23T10:02:05.502Z,15.57
2019-04-23T10:04:31.959Z,15.77
2019-04-23T10:07:07.264Z,15.03
2019-04-23T10:09:22.730Z,16.73
2019-04-23T10:11:53.392Z,16.67
2019-04-23T10:14:24.139Z,16.87
2019-04-23T10:16:55.690Z,16.93
2019-04-23T10:19:26.629Z,16.30
2019-04-23T10:21:57.506Z,15.87
2019-04-23T10:24:27.622Z,16.13
2019-04-23T10:26:57.835Z,15.37
2019-04-23T10:29:31.979Z,15.57
2019-04-23T10:32:02.151Z,16.60
2019-04-23T10:34:42.897Z,15.57
2019-04-23T10:37:03.073Z,16.67
2019-04-23T10:39:37.193Z,15.43
2019-04-23T10:42:03.513Z,15.60
2019-04-23T10:44:52.148Z,15.07
2019-04-23T10:48:24.635Z,16.03
2019-04-23T10:51:18.806Z,15.90
2019-04-23T10:53:52.458Z,15.93
2019-04-23T10:56:28.800Z,15.07
2019-04-23T10:59:15.063Z,16.37
2019-04-23T11:01:28.194Z,15.77
2019-04-23T11:04:12.151Z,15.17
2019-04-23T11:06:42.692Z,15.50
2019-04-23T11:09:16.000Z,16.27
2019-04-23T11:11:47.866Z,16.10
2019-04-23T11:14:23.183Z,15.93
2019-04-23T11:19:28.478Z,17.13
2019-04-23T11:21:58.216Z,17.97
2019-04-23T11:24:38.106Z,17.53
2019-04-23T11:27:01.930Z,19.03
2019-04-23T11:29:27.964Z,19.10
2019-04-23T11:32:31.339Z,19.90
2019-04-23T11:34:47.515Z,18.57
2019-04-23T11:39:33.880Z,19.87
2019-04-23T11:42:06.670Z,18.87
2019-04-23T11:44:38.990Z,19.37
2019-04-23T11:47:09.509Z,18.87
2019-04-23T11:52:08.440Z,18.73
2019-04-23T11:54:35.497Z,19.37
2019-04-23T11:59:49.326Z,19.33
2019-04-23T12:02:35.130Z,19.63
2019-04-23T12:05:26.551Z,18.53
2019-04-23T12:08:26.718Z,18.03
2019-04-23T12:11:35.167Z,17.53
2019-04-23T12:13:35.904Z,18.80
2019-04-23T12:16:11.861Z,18.53
2019-04-23T12:18:43.604Z,19.03
2019-04-23T12:21:13.108Z,19.57
2019-04-23T12:24:00.733Z,20.27
2019-04-23T12:26:23.499Z,21.57
2019-04-23T12:28:53.109Z,23.30
2019-04-23T12:31:20.936Z,23.70
2019-04-23T12:33:50.204Z,22.03
2019-04-23T12:36:39.498Z,23.23
2019-04-23T12:39:08.800Z,22.50
2019-04-23T12:41:38.512Z,23.33
2019-04-23T12:44:08.438Z,23.63
2019-04-23T12:46:57.533Z,23.47
2019-04-23T12:49:25.586Z,24.67
2019-04-23T12:51:50.303Z,24.10
2019-04-23T12:54:23.078Z,24.43
2019-04-23T12:56:57.458Z,24.93
2019-04-23T12:59:20.264Z,26.30
2019-04-23T13:01:49.706Z,21.97
2019-04-23T13:04:21.868Z,24.87
2019-04-23T13:06:46.201Z,23.80
2019-04-23T13:09:34.750Z,23.53
2019-04-23T13:11:52.889Z,23.83
2019-04-23T13:14:29.539Z,22.90
2019-04-23T13:17:05.491Z,23.23
2019-04-23T13:19:33.335Z,22.73
2019-04-23T13:24:46.251Z,21.40
2019-04-23T13:27:15.687Z,22.03
2019-04-23T13:29:51.752Z,20.93
2019-04-23T13:32:15.276Z,16.50
2019-04-23T13:34:52.702Z,18.63
2019-04-23T13:37:20.177Z,19.23
2019-04-23T13:39:43.907Z,19.47
2019-04-23T13:42:22.870Z,18.53
2019-04-23T13:44:46.670Z,19.20
2019-04-23T13:47:29.902Z,20.53
2019-04-23T13:50:00.270Z,19.73
2019-04-23T13:52:47.818Z,20.33
2019-04-23T13:59:57.795Z,20.77
2019-04-23T14:02:38.820Z,21.07
2019-04-23T14:05:17.776Z,19.87
2019-04-23T14:10:29.864Z,20.73
2019-04-23T14:13:08.246Z,23.00
2019-04-23T14:15:39.037Z,25.27
2019-04-23T14:18:19.642Z,25.73
2019-04-23T14:20:27.755Z,26.40
2019-04-23T14:23:08.277Z,26.63
2019-04-23T14:25:28.149Z,24.97
2019-04-23T14:28:14.290Z,24.30
2019-04-23T14:30:37.221Z,24.90
2019-04-23T14:33:15.326Z,25.77
2019-04-23T14:35:40.643Z,25.03
2019-04-23T14:43:18.307Z,20.37
2019-04-23T14:51:02.426Z,24.90
2019-04-23T14:53:24.607Z,25.93
2019-04-23T14:56:00.492Z,27.37
2019-04-23T15:01:19.305Z,26.47
2019-04-23T15:03:40.195Z,26.97
2019-04-23T15:06:20.128Z,26.13
2019-04-23T15:08:48.589Z,26.20
2019-04-23T15:11:20.578Z,26.37
2019-04-23T15:16:20.975Z,28.07
2019-04-23T15:19:22.227Z,27.57
2019-04-23T15:22:00.599Z,28.10
2019-04-23T15:29:02.966Z,27.27
2019-04-23T15:34:18.985Z,25.97
2019-04-23T15:42:08.861Z,24.43
2019-04-23T15:44:16.152Z,23.00
2019-04-23T15:49:28.860Z,22.07
2019-04-23T15:52:02.523Z,20.77
2019-04-23T15:54:37.594Z,20.53
2019-04-23T15:59:33.238Z,21.10
2019-04-23T16:01:42.523Z,20.87
2019-04-23T16:04:06.254Z,20.97
2019-04-23T16:06:38.497Z,21.37
2019-04-23T16:09:39.881Z,21.17
2019-04-23T16:12:03.160Z,20.50
2019-04-23T16:14:56.778Z,20.60
2019-04-23T16:22:31.556Z,19.23
2019-04-23T16:25:06.673Z,20.03
2019-04-23T16:27:32.187Z,18.73
2019-04-23T16:30:19.858Z,19.50
2019-04-23T16:33:05.254Z,20.10
2019-04-23T16:35:32.938Z,19.13
2019-04-23T16:38:18.028Z,22.73
2019-04-23T16:43:08.949Z,22.47
2019-04-23T16:45:36.867Z,24.97
2019-04-23T16:48:23.742Z,25.83
2019-04-23T16:50:57.472Z,24.33
2019-04-23T16:53:16.121Z,25.60
2019-04-23T16:58:21.434Z,25.07
2019-04-23T17:00:59.087Z,26.17
2019-04-23T17:03:28.246Z,24.43
2019-04-23T17:05:50.622Z,25.80
2019-04-23T17:11:01.757Z,25.67
2019-04-23T17:13:20.319Z,24.07
2019-04-23T17:16:00.296Z,25.00
2019-04-23T17:18:24.613Z,23.50
2019-04-23T17:23:35.853Z,22.83
2019-04-23T17:31:27.902Z,22.10
2019-04-23T17:36:30.565Z,23.83
2019-04-23T17:39:18.250Z,22.23
2019-04-23T17:45:02.022Z,21.10
2019-04-23T17:47:51.359Z,21.40
2019-04-23T17:50:20.198Z,22.07
2019-04-23T17:55:21.685Z,20.27
2019-04-23T17:58:16.093Z,20.60
2019-04-23T18:00:40.977Z,19.80
2019-04-23T18:03:02.791Z,18.67
2019-04-23T18:05:40.690Z,19.87
2019-04-23T18:08:01.112Z,19.17
2019-04-23T18:13:08.871Z,19.90
2019-04-23T18:15:24.525Z,21.73
2019-04-23T18:18:05.104Z,19.93
2019-04-23T18:21:04.829Z,19.10
2019-04-23T18:23:22.898Z,18.60
2019-04-23T18:26:01.873Z,18.83
2019-04-23T18:28:31.732Z,18.33
2019-04-23T18:31:15.704Z,18.53
2019-04-23T18:36:14.720Z,17.43
2019-04-23T18:38:47.966Z,18.53
2019-04-23T18:41:31.395Z,18.57
2019-04-23T18:43:50.692Z,17.37
2019-04-23T18:46:22.867Z,17.17
2019-04-23T18:48:51.797Z,16.83
2019-04-23T18:51:40.673Z,16.87
2019-04-23T18:53:54.479Z,16.80
2019-04-23T19:01:32.987Z,16.10
2019-04-23T19:06:53.984Z,15.43
2019-04-23T19:13:06.732Z,14.83
2019-04-23T19:15:38.022Z,15.37
2019-04-23T19:18:04.009Z,16.37
2019-04-23T19:20:55.833Z,16.70
2019-04-23T19:25:38.787Z,17.03
2019-04-23T19:28:30.795Z,17.03
2019-04-23T19:31:27.668Z,16.80
2019-04-23T19:36:51.306Z,16.30
2019-04-23T19:39:21.094Z,18.13
2019-04-23T19:42:02.130Z,17.67
2019-04-23T19:47:09.638Z,18.23
2019-04-23T20:04:42.352Z,19.77
2019-04-23T20:07:33.017Z,19.27
2019-04-23T20:09:50.697Z,19.77
2019-04-23T20:14:52.293Z,20.37
2019-04-23T20:17:34.080Z,21.07
2019-04-23T20:22:29.133Z,20.27
2019-04-23T20:25:09.927Z,19.40
2019-04-23T20:27:26.401Z,19.87
2019-04-23T20:30:22.957Z,20.17
2019-04-23T20:35:24.340Z,19.97
2019-04-23T20:42:47.026Z,21.60
2019-04-23T20:45:44.242Z,22.13
2019-04-23T20:47:54.183Z,23.13
2019-04-23T20:50:16.441Z,22.53
2019-04-23T20:52:49.981Z,22.73
2019-04-23T20:55:29.534Z,22.97
2019-04-23T20:58:18.477Z,23.00
2019-04-23T21:03:52.229Z,23.20
2019-04-23T21:06:18.876Z,21.57
2019-04-23T21:09:10.074Z,22.60
2019-04-23T21:11:35.414Z,24.20
2019-04-23T21:16:21.714Z,23.20
2019-04-23T21:18:59.678Z,22.87
2019-04-23T21:21:27.831Z,22.13
2019-04-23T21:23:55.121Z,22.77
2019-04-23T21:26:28.201Z,22.43
2019-04-23T21:29:02.188Z,22.00
2019-04-23T21:31:43.822Z,21.13
2019-04-23T21:36:48.248Z,22.07
2019-04-23T21:40:02.760Z,21.17
2019-04-23T21:42:54.708Z,21.57
2019-04-23T21:45:20.866Z,21.47
2019-04-23T21:47:51.799Z,21.13
2019-04-23T21:52:48.729Z,22.07
2019-04-23T21:55:20.494Z,21.30
2019-04-23T21:58:00.206Z,20.73
2019-04-23T22:00:26.196Z,20.23
2019-04-23T22:05:24.998Z,21.20
2019-04-23T22:07:56.634Z,19.70
2019-04-23T22:10:26.435Z,19.53
2019-04-23T22:15:34.457Z,19.27
2019-04-23T22:18:03.152Z,17.97
2019-04-23T22:25:47.010Z,18.73
2019-04-23T22:28:11.471Z,18.60
2019-04-23T22:30:54.949Z,18.77
2019-04-23T22:33:11.262Z,17.63
2019-04-23T22:35:49.905Z,17.57
2019-04-23T22:40:41.656Z,16.60
2019-04-23T22:45:52.055Z,16.33
2019-04-23T22:48:13.745Z,17.37
2019-04-23T22:50:56.750Z,16.53
2019-04-23T22:55:56.926Z,16.17
2019-04-23T22:58:31.693Z,16.33
2019-04-23T23:01:50.498Z,16.93
2019-04-23T23:04:15.173Z,17.50
2019-04-23T23:06:49.390Z,17.27
2019-04-23T23:09:18.949Z,16.77
2019-04-23T23:11:52.128Z,18.20
2019-04-23T23:16:45.357Z,16.50
2019-04-23T23:19:21.773Z,16.70
2019-04-23T23:21:59.502Z,15.83
2019-04-23T23:24:21.630Z,16.20
2019-04-23T23:26:54.216Z,16.90
2019-04-23T23:29:41.936Z,16.37
2019-04-23T23:32:09.618Z,15.03
2019-04-23T23:34:28.242Z,15.93
2019-04-23T23:37:09.078Z,15.37
2019-04-23T23:41:58.887Z,14.40
2019-04-23T23:47:04.386Z,16.17
2019-04-23T23:51:57.257Z,15.87
2019-04-23T23:54:45.156Z,16.30
2019-04-23T23:57:12.178Z,17.10
